createdAt,value
2022-10-21T00:01:11.139Z,9.60
2022-10-21T00:03:40.088Z,11.20
2022-10-21T00:06:08.612Z,11.23
2022-10-21T00:08:39.339Z,10.40
2022-10-21T00:11:09.744Z,9.07
2022-10-21T00:13:39.785Z,11.20
2022-10-21T00:16:09.931Z,13.00
2022-10-21T00:18:39.902Z,12.17
2022-10-21T00:21:09.062Z,14.80
2022-10-21T00:23:38.902Z,11.60
2022-10-21T00:26:08.086Z,12.70
2022-10-21T00:28:36.727Z,9.73
2022-10-21T00:31:08.220Z,10.63
2022-10-21T00:33:37.139Z,8.93
2022-10-21T00:36:07.298Z,10.47
2022-10-21T00:38:38.212Z,10.40
2022-10-21T00:41:06.852Z,9.03
2022-10-21T00:43:57.275Z,8.80
2022-10-21T00:46:31.169Z,10.03
2022-10-21T00:49:02.721Z,11.87
2022-10-21T00:51:32.118Z,9.87
2022-10-21T00:54:02.666Z,11.70
2022-10-21T00:56:32.908Z,10.23
2022-10-21T00:59:02.924Z,10.23
2022-10-21T01:01:31.921Z,12.20
2022-10-21T01:04:01.597Z,11.03
2022-10-21T01:06:30.552Z,12.20
2022-10-21T01:08:59.308Z,9.43
2022-10-21T01:11:29.944Z,10.33
2022-10-21T01:14:34.857Z,10.90
2022-10-21T01:17:20.787Z,9.20
2022-10-21T01:20:30.406Z,9.47
2022-10-21T01:23:20.858Z,10.30
2022-10-21T01:26:07.061Z,8.43
2022-10-21T01:28:47.654Z,10.13
2022-10-21T01:31:19.626Z,10.97
2022-10-21T01:33:55.894Z,10.87
2022-10-21T01:36:32.163Z,9.07
2022-10-21T01:39:07.735Z,10.83
2022-10-21T01:41:42.671Z,10.67
2022-10-21T01:44:17.263Z,9.00
2022-10-21T01:46:50.270Z,10.87
2022-10-21T01:49:23.091Z,11.40
2022-10-21T01:51:52.379Z,11.10
2022-10-21T01:54:24.174Z,9.27
2022-10-21T01:56:53.908Z,9.07
2022-10-21T01:59:23.509Z,8.27
2022-10-21T02:01:53.563Z,9.57
2022-10-21T02:04:22.426Z,8.77
2022-10-21T02:06:50.964Z,8.90
2022-10-21T02:09:19.521Z,10.50
2022-10-21T02:11:50.463Z,11.13
2022-10-21T02:14:22.397Z,8.80
2022-10-21T02:16:52.729Z,9.23
2022-10-21T02:19:22.043Z,9.43
2022-10-21T02:21:53.131Z,10.70
2022-10-21T02:24:25.200Z,8.53
2022-10-21T02:26:53.679Z,7.83
2022-10-21T02:29:23.800Z,9.07
2022-10-21T02:32:01.889Z,11.20
2022-10-21T02:34:36.254Z,8.87
2022-10-21T02:37:12.479Z,9.27
2022-10-21T02:39:45.127Z,9.77
2022-10-21T02:42:15.526Z,10.07
2022-10-21T02:44:43.962Z,11.60
2022-10-21T02:47:13.848Z,8.40
2022-10-21T02:49:42.337Z,7.37
2022-10-21T02:52:10.748Z,10.27
2022-10-21T02:54:39.275Z,9.67
2022-10-21T02:57:07.723Z,10.03
2022-10-21T02:59:36.224Z,8.20
2022-10-21T03:02:04.726Z,8.70
2022-10-21T03:04:34.565Z,8.13
2022-10-21T03:07:03.018Z,9.20
2022-10-21T03:09:31.562Z,9.23
2022-10-21T03:12:00.065Z,7.93
2022-10-21T03:14:28.498Z,9.53
2022-10-21T03:16:57.008Z,14.33
2022-10-21T03:19:25.505Z,10.73
2022-10-21T03:21:55.417Z,7.97
2022-10-21T03:24:28.586Z,9.77
2022-10-21T03:26:57.689Z,8.70
2022-10-21T03:29:26.127Z,9.40
2022-10-21T03:31:54.618Z,8.73
2022-10-21T03:34:23.040Z,20.30
2022-10-21T03:36:51.499Z,21.60
2022-10-21T03:39:21.328Z,25.83
2022-10-21T03:41:49.772Z,14.00
2022-10-21T03:44:18.216Z,10.80
2022-10-21T03:46:46.633Z,8.30
2022-10-21T03:49:20.792Z,7.93
2022-10-21T03:51:50.511Z,8.77
2022-10-21T03:54:20.450Z,9.00
2022-10-21T03:56:48.908Z,7.50
2022-10-21T03:59:17.392Z,7.63
2022-10-21T04:01:45.845Z,8.90
2022-10-21T04:04:14.338Z,9.60
2022-10-21T04:06:42.790Z,14.67
2022-10-21T04:09:11.448Z,10.00
2022-10-21T04:11:41.392Z,9.97
2022-10-21T04:14:12.975Z,8.90
2022-10-21T04:16:43.822Z,9.67
2022-10-21T04:19:16.323Z,10.23
2022-10-21T04:21:45.051Z,9.43
2022-10-21T04:24:13.705Z,10.20
2022-10-21T04:26:43.693Z,7.27
2022-10-21T04:29:12.173Z,8.00
2022-10-21T04:31:40.663Z,7.40
2022-10-21T04:34:09.228Z,8.97
2022-10-21T04:36:37.696Z,6.93
2022-10-21T04:39:06.443Z,10.93
2022-10-21T04:41:35.007Z,11.47
2022-10-21T04:44:06.379Z,13.13
2022-10-21T04:46:34.939Z,9.37
2022-10-21T04:49:03.395Z,9.73
2022-10-21T04:54:05.360Z,9.97
2022-10-21T04:56:33.869Z,9.67
2022-10-21T04:59:02.296Z,9.27
2022-10-21T05:01:32.411Z,9.23
2022-10-21T05:04:01.018Z,10.87
2022-10-21T05:06:29.473Z,11.20
2022-10-21T05:08:58.024Z,11.87
2022-10-21T05:11:26.576Z,8.80
2022-10-21T05:13:55.067Z,7.93
2022-10-21T05:16:24.011Z,9.67
2022-10-21T05:18:53.852Z,11.90
2022-10-21T05:21:22.305Z,9.27
2022-10-21T05:23:50.731Z,11.37
2022-10-21T05:26:19.191Z,10.67
2022-10-21T05:28:47.608Z,12.47
2022-10-21T05:31:16.049Z,15.13
2022-10-21T05:33:44.670Z,8.77
2022-10-21T05:36:14.467Z,11.97
2022-10-21T05:38:42.947Z,11.13
2022-10-21T05:41:11.965Z,10.83
2022-10-21T05:43:40.699Z,10.43
2022-10-21T05:46:09.980Z,14.67
2022-10-21T05:48:38.792Z,10.40
2022-10-21T05:51:08.472Z,9.27
2022-10-21T05:53:39.820Z,7.93
2022-10-21T05:56:09.661Z,8.90
2022-10-21T05:58:38.152Z,11.27
2022-10-21T06:01:06.634Z,7.87
2022-10-21T06:03:35.222Z,7.30
2022-10-21T06:06:07.789Z,11.77
2022-10-21T06:08:39.806Z,8.60
2022-10-21T06:11:10.099Z,10.20
2022-10-21T06:13:39.376Z,9.03
2022-10-21T06:16:08.990Z,12.20
2022-10-21T06:18:39.632Z,8.40
2022-10-21T06:21:08.422Z,11.00
2022-10-21T06:23:38.315Z,11.77
2022-10-21T06:26:08.574Z,15.80
2022-10-21T06:28:38.771Z,15.13
2022-10-21T06:31:08.383Z,14.07
2022-10-21T06:33:36.880Z,14.23
2022-10-21T06:36:05.713Z,17.33
2022-10-21T06:38:34.313Z,19.47
2022-10-21T06:41:10.586Z,13.80
2022-10-21T06:43:44.720Z,26.90
2022-10-21T06:46:15.589Z,20.93
2022-10-21T06:48:44.119Z,21.33
2022-10-21T06:51:16.156Z,15.67
2022-10-21T06:53:45.563Z,11.73
2022-10-21T06:56:18.037Z,11.53
2022-10-21T06:58:48.291Z,12.63
2022-10-21T07:01:33.540Z,13.10
2022-10-21T07:04:03.927Z,12.03
2022-10-21T07:09:02.237Z,11.40
2022-10-21T07:11:32.118Z,15.07
2022-10-21T07:14:01.742Z,14.33
2022-10-21T07:16:31.775Z,14.30
2022-10-21T07:19:00.255Z,14.83
2022-10-21T07:21:31.153Z,14.37
2022-10-21T07:24:00.678Z,16.37
2022-10-21T07:26:33.868Z,17.13
2022-10-21T07:29:02.495Z,12.63
2022-10-21T07:31:34.119Z,13.73
2022-10-21T07:36:35.670Z,12.30
2022-10-21T07:39:06.937Z,13.40
2022-10-21T07:41:38.440Z,13.03
2022-10-21T07:44:07.603Z,9.20
2022-10-21T07:46:37.902Z,9.53
2022-10-21T07:49:06.649Z,9.87
2022-10-21T07:51:35.219Z,11.97
2022-10-21T07:54:05.055Z,13.53
2022-10-21T07:56:37.114Z,11.53
2022-10-21T07:59:11.662Z,11.23
2022-10-21T08:01:44.390Z,13.97
2022-10-21T08:04:14.211Z,13.37
2022-10-21T08:06:42.971Z,13.67
2022-10-21T08:09:11.594Z,12.83
2022-10-21T08:11:41.525Z,11.50
2022-10-21T08:14:10.827Z,13.83
2022-10-21T08:16:39.699Z,10.27
2022-10-21T08:19:09.540Z,12.50
2022-10-21T08:21:38.536Z,11.20
2022-10-21T08:24:07.528Z,13.27
2022-10-21T08:26:35.969Z,13.60
2022-10-21T08:29:06.018Z,14.70
2022-10-21T08:31:34.450Z,13.60
2022-10-21T08:34:02.981Z,11.00
2022-10-21T08:36:31.387Z,13.60
2022-10-21T08:38:59.959Z,15.63
2022-10-21T08:41:43.887Z,19.97
2022-10-21T08:44:24.039Z,21.87
2022-10-21T08:46:57.455Z,20.73
2022-10-21T08:49:30.804Z,21.13
2022-10-21T08:52:03.450Z,14.83
2022-10-21T08:54:38.631Z,14.90
2022-10-21T08:57:09.279Z,14.80
2022-10-21T08:59:41.966Z,14.07
2022-10-21T09:02:23.627Z,15.23
2022-10-21T09:04:56.019Z,15.50
2022-10-21T09:07:28.975Z,15.47
2022-10-21T09:10:01.333Z,17.37
2022-10-21T09:12:35.110Z,16.80
2022-10-21T09:15:21.119Z,14.40
2022-10-21T09:18:06.683Z,19.43
2022-10-21T09:20:46.777Z,16.20
2022-10-21T09:23:35.843Z,17.40
2022-10-21T09:26:06.786Z,12.73
2022-10-21T09:28:35.345Z,14.83
2022-10-21T09:31:14.750Z,13.33
2022-10-21T09:33:47.522Z,15.30
2022-10-21T09:36:19.630Z,14.57
2022-10-21T09:38:54.212Z,11.83
2022-10-21T09:41:25.368Z,13.53
2022-10-21T09:43:53.834Z,12.47
2022-10-21T09:46:23.895Z,15.03
2022-10-21T09:49:23.213Z,11.60
2022-10-21T09:51:42.713Z,13.93
2022-10-21T09:54:15.026Z,13.90
2022-10-21T09:56:46.286Z,12.20
2022-10-21T09:59:17.766Z,12.53
2022-10-21T10:01:49.263Z,14.27
2022-10-21T10:04:24.054Z,15.70
2022-10-21T10:06:52.684Z,12.73
2022-10-21T10:09:27.664Z,13.13
2022-10-21T10:11:59.275Z,13.30
2022-10-21T10:14:33.656Z,15.60
2022-10-21T10:17:21.975Z,11.17
2022-10-21T10:20:14.399Z,14.23
2022-10-21T10:22:43.811Z,14.60
2022-10-21T10:25:24.208Z,13.47
2022-10-21T10:27:54.423Z,11.83
2022-10-21T10:30:23.752Z,12.47
2022-10-21T10:32:55.073Z,12.50
2022-10-21T10:35:27.442Z,12.00
2022-10-21T10:37:58.448Z,11.50
2022-10-21T10:40:32.151Z,14.80
2022-10-21T10:43:04.684Z,14.27
2022-10-21T10:45:33.304Z,12.63
2022-10-21T10:48:04.747Z,11.53
2022-10-21T10:50:43.955Z,12.50
2022-10-21T10:53:24.328Z,13.63
2022-10-21T10:55:58.697Z,12.20
2022-10-21T10:58:29.561Z,13.10
2022-10-21T11:01:01.252Z,16.30
2022-10-21T11:03:41.120Z,16.27
2022-10-21T11:06:15.843Z,24.47
2022-10-21T11:08:47.519Z,15.67
2022-10-21T11:11:19.585Z,20.87
2022-10-21T11:13:48.034Z,24.23
2022-10-21T11:16:59.124Z,28.20
2022-10-21T11:19:36.815Z,45.57
2022-10-21T11:22:13.942Z,19.47
2022-10-21T11:24:55.739Z,17.27
2022-10-21T11:27:37.826Z,16.20
2022-10-21T11:30:12.925Z,15.60
2022-10-21T11:32:58.157Z,17.50
2022-10-21T11:35:38.548Z,17.70
2022-10-21T11:38:28.546Z,14.00
2022-10-21T11:41:03.287Z,16.93
2022-10-21T11:43:38.539Z,14.57
2022-10-21T11:46:11.239Z,14.67
2022-10-21T11:48:50.700Z,13.90
2022-10-21T11:51:28.697Z,17.33
2022-10-21T11:54:13.855Z,17.10
2022-10-21T11:56:46.806Z,14.43
2022-10-21T12:02:05.748Z,15.73
2022-10-21T12:04:41.867Z,17.00
2022-10-21T12:07:30.679Z,14.50
2022-10-21T12:10:03.113Z,13.50
2022-10-21T12:12:33.474Z,15.43
2022-10-21T12:15:03.107Z,15.87
2022-10-21T12:17:34.290Z,17.17
2022-10-21T12:20:06.520Z,19.10
2022-10-21T12:22:36.591Z,16.03
2022-10-21T12:25:11.030Z,14.93
2022-10-21T12:27:44.651Z,16.57
2022-10-21T12:30:17.576Z,14.93
2022-10-21T12:32:54.124Z,14.47
2022-10-21T12:35:28.474Z,13.97
2022-10-21T12:38:22.001Z,15.07
2022-10-21T12:40:51.191Z,13.07
2022-10-21T12:43:23.885Z,15.87
2022-10-21T12:46:07.205Z,15.23
2022-10-21T12:48:39.582Z,15.43
2022-10-21T12:51:09.390Z,14.20
2022-10-21T12:53:42.044Z,14.47
2022-10-21T12:56:11.608Z,12.93
2022-10-21T12:58:43.922Z,13.90
2022-10-21T13:01:35.470Z,16.40
2022-10-21T13:04:04.287Z,15.13
2022-10-21T13:06:55.868Z,14.83
2022-10-21T13:09:41.108Z,16.37
2022-10-21T13:12:19.451Z,18.07
2022-10-21T13:14:48.790Z,15.57
2022-10-21T13:17:31.651Z,14.63
2022-10-21T13:20:38.404Z,14.07
2022-10-21T13:23:29.927Z,18.13
2022-10-21T13:26:15.307Z,18.67
2022-10-21T13:28:43.842Z,17.93
2022-10-21T13:31:21.716Z,14.90
2022-10-21T13:33:53.472Z,16.27
2022-10-21T13:39:21.568Z,17.97
2022-10-21T13:42:02.755Z,16.33
2022-10-21T13:44:35.625Z,17.13
2022-10-21T13:47:31.237Z,17.73
2022-10-21T13:50:06.973Z,15.37
2022-10-21T13:52:35.450Z,18.20
2022-10-21T13:55:05.817Z,20.10
2022-10-21T13:57:37.714Z,20.73
2022-10-21T14:00:10.775Z,20.23
2022-10-21T14:02:47.647Z,18.67
2022-10-21T14:05:30.939Z,18.90
2022-10-21T14:07:59.666Z,19.57
2022-10-21T14:10:29.799Z,17.97
2022-10-21T14:15:39.886Z,17.40
2022-10-21T14:18:08.675Z,17.37
2022-10-21T14:20:38.399Z,18.70
2022-10-21T14:23:08.720Z,19.47
2022-10-21T14:25:37.327Z,16.93
2022-10-21T14:28:07.229Z,15.00
2022-10-21T14:30:37.149Z,18.90
2022-10-21T14:33:08.480Z,15.10
2022-10-21T14:35:37.299Z,17.50
2022-10-21T14:38:21.022Z,16.23
2022-10-21T14:40:58.176Z,16.63
2022-10-21T14:43:34.102Z,14.00
2022-10-21T14:46:04.641Z,15.67
2022-10-21T14:48:35.166Z,16.80
2022-10-21T14:51:06.648Z,15.40
2022-10-21T14:53:36.949Z,16.03
2022-10-21T14:56:06.700Z,16.90
2022-10-21T14:58:37.858Z,17.87
2022-10-21T15:01:13.559Z,14.30
2022-10-21T15:03:44.063Z,16.10
2022-10-21T15:06:16.042Z,20.07
2022-10-21T15:08:46.358Z,18.03
2022-10-21T15:11:23.675Z,18.73
2022-10-21T15:14:16.019Z,18.33
2022-10-21T15:16:47.315Z,18.10
2022-10-21T15:19:18.597Z,16.43
2022-10-21T15:21:49.607Z,14.53
2022-10-21T15:24:20.963Z,15.27
2022-10-21T15:26:51.088Z,16.43
2022-10-21T15:29:35.603Z,15.23
2022-10-21T15:32:04.960Z,16.90
2022-10-21T15:34:33.707Z,15.30
2022-10-21T15:37:02.185Z,16.23
2022-10-21T15:39:31.127Z,17.43
2022-10-21T15:42:00.028Z,16.90
2022-10-21T15:44:46.366Z,15.10
2022-10-21T15:47:14.855Z,15.50
2022-10-21T15:49:45.982Z,19.07
2022-10-21T15:52:15.211Z,18.17
2022-10-21T15:54:43.751Z,16.57
2022-10-21T15:57:18.050Z,14.80
2022-10-21T15:59:48.159Z,20.87
2022-10-21T16:02:18.084Z,24.10
2022-10-21T16:04:46.744Z,19.87
2022-10-21T16:07:21.294Z,18.67
2022-10-21T16:09:49.711Z,17.50
2022-10-21T16:12:19.050Z,17.43
2022-10-21T16:14:48.819Z,16.70
2022-10-21T16:17:17.311Z,17.07
2022-10-21T16:19:45.854Z,16.33
2022-10-21T16:22:17.529Z,17.60
2022-10-21T16:24:46.022Z,16.83
2022-10-21T16:27:23.035Z,17.77
2022-10-21T16:30:01.193Z,18.53
2022-10-21T16:32:29.765Z,19.70
2022-10-21T16:34:58.167Z,20.33
2022-10-21T16:37:28.391Z,20.77
2022-10-21T16:39:56.891Z,18.40
2022-10-21T16:42:25.374Z,15.23
2022-10-21T16:44:53.790Z,17.77
2022-10-21T16:49:53.736Z,14.83
2022-10-21T16:52:26.637Z,15.40
2022-10-21T16:54:55.112Z,16.73
2022-10-21T16:57:23.590Z,18.37
2022-10-21T16:59:52.009Z,16.53
2022-10-21T17:02:22.859Z,16.30
2022-10-21T17:04:51.310Z,18.87
2022-10-21T17:07:19.866Z,20.00
2022-10-21T17:09:48.389Z,18.57
2022-10-21T17:12:16.874Z,27.53
2022-10-21T17:14:45.327Z,26.17
2022-10-21T17:17:15.080Z,24.03
2022-10-21T17:19:44.980Z,19.40
2022-10-21T17:22:16.850Z,26.27
2022-10-21T17:24:45.644Z,19.87
2022-10-21T17:27:18.695Z,21.23
2022-10-21T17:29:48.167Z,18.20
2022-10-21T17:32:16.725Z,20.03
2022-10-21T17:34:46.553Z,18.63
2022-10-21T17:37:14.994Z,17.40
2022-10-21T17:39:44.472Z,16.73
2022-10-21T17:42:16.960Z,18.73
2022-10-21T17:44:45.742Z,18.60
2022-10-21T17:47:14.925Z,23.17
2022-10-21T17:49:43.543Z,18.30
2022-10-21T17:52:13.319Z,20.37
2022-10-21T17:54:41.777Z,22.30
2022-10-21T17:57:11.220Z,18.23
2022-10-21T17:59:39.763Z,20.73
2022-10-21T18:02:09.774Z,19.50
2022-10-21T18:04:38.496Z,22.97
2022-10-21T18:07:09.417Z,25.77
2022-10-21T18:09:40.094Z,23.13
2022-10-21T18:12:09.929Z,24.47
2022-10-21T18:14:38.698Z,20.60
2022-10-21T18:17:07.199Z,22.80
2022-10-21T18:19:36.267Z,21.07
2022-10-21T18:22:04.748Z,27.17
2022-10-21T18:24:33.183Z,24.30
2022-10-21T18:27:03.328Z,22.23
2022-10-21T18:29:31.741Z,20.73
2022-10-21T18:32:00.183Z,19.33
2022-10-21T18:34:28.847Z,21.43
2022-10-21T18:36:59.530Z,22.57
2022-10-21T18:39:28.101Z,33.20
2022-10-21T18:41:56.556Z,28.80
2022-10-21T18:44:26.390Z,24.87
2022-10-21T18:46:56.007Z,23.33
2022-10-21T18:49:24.671Z,18.40
2022-10-21T18:51:53.097Z,19.73
2022-10-21T18:54:22.220Z,19.73
2022-10-21T18:56:50.731Z,23.67
2022-10-21T18:59:27.123Z,15.97
2022-10-21T19:01:55.734Z,21.67
2022-10-21T19:04:24.568Z,17.20
2022-10-21T19:06:53.250Z,18.13
2022-10-21T19:09:24.402Z,19.27
2022-10-21T19:11:53.224Z,16.97
2022-10-21T19:14:21.789Z,15.73
2022-10-21T19:16:51.592Z,17.70
2022-10-21T19:19:19.998Z,15.30
2022-10-21T19:21:48.487Z,15.33
2022-10-21T19:24:16.846Z,17.67
2022-10-21T19:26:46.386Z,20.17
2022-10-21T19:29:16.926Z,58.67
2022-10-21T19:34:18.863Z,25.10
2022-10-21T19:36:47.418Z,23.50
2022-10-21T19:39:16.747Z,27.13
2022-10-21T19:41:45.307Z,27.63
2022-10-21T19:44:13.800Z,30.77
2022-10-21T19:46:42.495Z,23.53
2022-10-21T19:49:13.611Z,20.27
2022-10-21T19:51:43.436Z,20.83
2022-10-21T19:54:13.277Z,21.03
2022-10-21T19:56:42.147Z,19.70
2022-10-21T19:59:11.747Z,18.90
2022-10-21T20:01:40.437Z,17.10
2022-10-21T20:04:08.888Z,19.63
2022-10-21T20:06:38.347Z,19.20
2022-10-21T20:09:11.630Z,16.30
2022-10-21T20:11:41.307Z,18.10
2022-10-21T20:14:11.280Z,16.33
2022-10-21T20:16:42.370Z,16.40
2022-10-21T20:19:13.346Z,19.13
2022-10-21T20:21:42.648Z,18.20
2022-10-21T20:24:15.579Z,18.97
2022-10-21T20:26:45.661Z,19.83
2022-10-21T20:29:15.479Z,15.53
2022-10-21T20:31:44.040Z,17.77
2022-10-21T20:34:13.530Z,18.90
2022-10-21T20:36:41.955Z,17.97
2022-10-21T20:39:13.383Z,19.47
2022-10-21T20:41:41.831Z,19.77
2022-10-21T20:44:16.071Z,25.77
2022-10-21T20:46:44.854Z,21.23
2022-10-21T20:49:13.402Z,21.53
2022-10-21T20:51:43.232Z,20.23
2022-10-21T20:54:15.692Z,26.93
2022-10-21T20:56:44.757Z,25.87
2022-10-21T20:59:15.933Z,23.17
2022-10-21T21:01:46.391Z,22.33
2022-10-21T21:04:16.402Z,23.33
2022-10-21T21:06:46.446Z,22.60
2022-10-21T21:09:57.421Z,21.37
2022-10-21T21:12:07.236Z,23.77
2022-10-21T21:14:35.695Z,20.90
2022-10-21T21:17:04.402Z,21.20
2022-10-21T21:19:33.241Z,18.83
2022-10-21T21:22:03.718Z,22.47
2022-10-21T21:24:33.974Z,20.90
2022-10-21T21:27:02.401Z,18.53
2022-10-21T21:29:30.850Z,24.00
2022-10-21T21:31:59.471Z,20.87
2022-10-21T21:34:27.850Z,22.53
2022-10-21T21:36:56.763Z,22.87
2022-10-21T21:39:25.289Z,25.07
2022-10-21T21:41:55.162Z,19.60
2022-10-21T21:44:23.572Z,20.13
2022-10-21T21:46:51.986Z,23.20
2022-10-21T21:49:20.506Z,18.60
2022-10-21T21:51:48.916Z,21.07
2022-10-21T21:54:17.642Z,19.10
2022-10-21T21:56:46.572Z,18.63
2022-10-21T21:59:17.059Z,20.47
2022-10-21T22:01:45.568Z,21.10
2022-10-21T22:04:14.094Z,20.27
2022-10-21T22:06:42.571Z,20.33
2022-10-21T22:09:12.144Z,21.73
2022-10-21T22:11:40.989Z,17.43
2022-10-21T22:14:09.390Z,17.47
2022-10-21T22:16:39.321Z,18.10
2022-10-21T22:19:07.771Z,17.97
2022-10-21T22:21:36.261Z,18.70
2022-10-21T22:24:04.935Z,16.20
2022-10-21T22:26:33.416Z,19.23
2022-10-21T22:29:01.865Z,17.83
2022-10-21T22:31:30.838Z,23.47
2022-10-21T22:34:02.770Z,19.20
2022-10-21T22:36:32.708Z,18.80
2022-10-21T22:39:01.279Z,21.10
2022-10-21T22:41:29.728Z,17.47
2022-10-21T22:43:58.195Z,20.03
2022-10-21T22:46:34.436Z,22.40
2022-10-21T22:49:05.363Z,19.17
2022-10-21T22:51:34.273Z,16.00
2022-10-21T22:54:02.732Z,19.97
2022-10-21T22:56:32.046Z,17.47
2022-10-21T22:59:00.664Z,16.97
2022-10-21T23:01:30.669Z,21.17
2022-10-21T23:04:02.583Z,17.03
2022-10-21T23:06:33.644Z,16.63
2022-10-21T23:09:02.956Z,18.27
2022-10-21T23:11:31.474Z,17.60
2022-10-21T23:14:08.310Z,15.70
2022-10-21T23:16:37.503Z,17.00
2022-10-21T23:19:06.190Z,16.83
2022-10-21T23:21:36.287Z,16.07
2022-10-21T23:24:05.899Z,15.87
2022-10-21T23:26:35.596Z,15.73
2022-10-21T23:29:04.582Z,16.50
2022-10-21T23:31:32.987Z,14.83
2022-10-21T23:34:02.760Z,14.33
2022-10-21T23:36:31.258Z,17.90
2022-10-21T23:39:01.803Z,14.47
2022-10-21T23:41:30.242Z,16.90
2022-10-21T23:43:58.747Z,18.00
2022-10-21T23:49:00.611Z,15.37
2022-10-21T23:51:29.080Z,19.23
2022-10-21T23:53:57.583Z,18.07
2022-10-21T23:56:27.532Z,19.00
2022-10-21T23:58:55.928Z,19.80
